Archival Weather

Norman Y Mineta San Jose Intl

San Jose, California (KSJC)

Report from: Saturday, February 10, 2024 5:53 AM PST
Current time: Friday, June 14, 2024 4:59 AM PDT

Current weather – Weather history – Daily summaries
Weather forecast

Present weatherMist
Temperature5.6°C (42.1°F)
Dew point3.3°C (37.9°F)
Winds Calm
Visibility4 mi. (6.4 km)
Clouds Sky clear
Altimeter30.11 in.Hg (1020 mB)
Relative humidity85 %
Density altitude-1,236 ft. (-377 m)
Sea-level pressure102.0 kPa (1020 mB, 30.11 in.Hg)
Remarks Automated weather observing station with precipitation discriminator
Flight conditions Marginal Visual Meteorological Conditions
Raw dataKSJC 101353Z 00000KT 4SM BR CLR 06/03 A3011 RMK AO2 SLP196 T00560033
An error has occurred. This application may no longer respond until reloaded. Reload 🗙